Time;durP1;ratioP1;P1;durP2;ratioP2;P2;SDS_P1;SDS_P2;PMS_P1;PMS_P2;Temp;Humidity;BMP_temperature;BMP_pressure;BME280_temperature;BME280_humidity;BME280_pressure;Samples;Min_cycle;Max_cycle;Signal;HPM_P1;HPM_P2
2022/06/30 00:00:40;;;;;;;10.00;6.00;;;;;;;17.40;58.66;99935.59;5064976;28;20036;-59
2022/06/30 00:03:06;;;;;;;12.43;6.50;;;;;;;17.45;58.22;99939.75;5082882;28;20146;-59
2022/06/30 00:05:32;;;;;;;16.02;6.53;;;;;;;17.43;57.77;99943.28;5064551;28;20039;-59
2022/06/30 00:07:57;;;;;;;9.45;5.63;;;;;;;17.47;57.61;99945.75;5062313;28;20036;-59
2022/06/30 00:10:23;;;;;;;15.15;6.63;;;;;;;17.46;57.98;99949.28;5062231;28;20021;-60
2022/06/30 00:12:48;;;;;;;12.15;5.80;;;;;;;17.39;58.54;99954.81;5062470;28;20029;-60
2022/06/30 00:15:14;;;;;;;14.38;5.93;;;;;;;17.38;58.42;99945.25;5062622;28;20230;-60
2022/06/30 00:17:40;;;;;;;11.50;5.90;;;;;;;17.35;58.09;99952.41;5062351;28;20033;-60
2022/06/30 00:20:06;;;;;;;13.80;5.72;;;;;;;17.31;58.53;99949.06;5076362;28;20050;-61
2022/06/30 00:22:32;;;;;;;11.73;5.70;;;;;;;17.31;58.81;99954.31;5073013;28;20032;-61
2022/06/30 00:24:58;;;;;;;9.60;5.57;;;;;;;17.33;58.30;99942.03;5066816;28;20036;-60
2022/06/30 00:27:24;;;;;;;13.80;5.72;;;;;;;17.30;58.61;99939.53;5082523;28;20029;-60
2022/06/30 00:29:49;;;;;;;11.73;5.40;;;;;;;17.20;58.46;99933.88;5082360;28;20220;-61
2022/06/30 00:32:15;;;;;;;14.15;6.25;;;;;;;17.27;58.72;99952.75;5082356;28;20051;-60
2022/06/30 00:34:40;;;;;;;14.68;5.85;;;;;;;17.24;58.46;99945.03;5071917;28;20025;-60
2022/06/30 00:37:06;;;;;;;11.27;5.75;;;;;;;17.24;58.81;99945.03;5067602;28;20602;-59
2022/06/30 00:39:32;;;;;;;10.27;5.43;;;;;;;17.18;58.64;99929.63;5064400;28;20024;-60
2022/06/30 00:41:57;;;;;;;8.52;5.70;;;;;;;17.17;58.62;99933.16;5062230;28;20318;-60
2022/06/30 00:44:23;;;;;;;11.75;5.57;;;;;;;17.19;59.08;99941.78;5078671;28;20048;-60
2022/06/30 00:46:49;;;;;;;12.30;5.72;;;;;;;17.16;58.79;99931.44;5066637;28;20025;-60
2022/06/30 00:49:17;;;;;;;9.88;6.05;;;;;;;17.09;58.69;99928.25;5044502;28;20322;-60
2022/06/30 00:51:43;;;;;;;11.35;5.50;;;;;;;17.12;58.75;99928.13;5062214;28;20052;-60
2022/06/30 00:54:10;;;;;;;10.25;6.07;;;;;;;16.83;58.37;99882.28;5062063;28;20020;-59
2022/06/30 00:56:40;;;;;;;10.43;6.05;;;;;;;16.82;58.66;99880.59;5061985;28;20028;-59
2022/06/30 00:59:08;;;;;;;14.25;5.55;;;;;;;17.07;58.92;99927.47;5062240;28;20025;-59
2022/06/30 01:01:34;;;;;;;12.20;5.88;;;;;;;17.06;58.75;99925.78;5061923;28;20032;-59
2022/06/30 01:04:00;;;;;;;9.57;4.80;;;;;;;17.02;58.67;99922.44;5062070;28;20049;-59
2022/06/30 01:06:27;;;;;;;10.15;5.70;;;;;;;16.99;59.06;99919.97;5064090;28;20043;-59
2022/06/30 01:08:53;;;;;;;10.43;5.47;;;;;;;16.99;58.93;99916.50;5065810;28;20356;-59
2022/06/30 01:14:03;;;;;;;15.85;5.35;;;;;;;16.94;59.44;99915.84;5078699;28;20036;-59
2022/06/30 01:16:30;;;;;;;15.10;5.97;;;;;;;16.97;59.19;99915.72;5076636;28;20025;-59
2022/06/30 01:18:55;;;;;;;12.13;5.03;;;;;;;16.90;59.80;99910.75;5069139;28;20092;-59
2022/06/30 01:21:25;;;;;;;11.43;5.60;;;;;;;16.90;59.37;99899.44;5085616;28;20020;-59
2022/06/30 01:23:51;;;;;;;11.88;6.10;;;;;;;16.93;59.61;99909.78;5084712;28;20373;-60
2022/06/30 01:26:16;;;;;;;10.30;5.43;;;;;;;16.94;59.75;99916.69;5070226;28;20075;-60
2022/06/30 01:28:42;;;;;;;15.20;6.05;;;;;;;16.89;59.72;99916.06;5065310;28;20317;-60
2022/06/30 01:31:07;;;;;;;10.68;5.63;;;;;;;16.90;59.99;99916.00;5070623;28;20021;-60
2022/06/30 01:33:33;;;;;;;12.82;6.00;;;;;;;16.88;60.31;99912.56;5084598;28;20059;-59
2022/06/30 01:35:58;;;;;;;12.38;5.90;;;;;;;16.85;60.88;99904.84;5047518;28;20049;-59
2022/06/30 01:38:24;;;;;;;9.90;5.50;;;;;;;16.83;61.19;99908.44;5072379;28;20203;-60
2022/06/30 01:40:50;;;;;;;12.80;5.90;;;;;;;16.87;60.35;99910.88;5065272;28;20087;-59
2022/06/30 01:43:16;;;;;;;14.18;5.90;;;;;;;16.79;60.46;99885.94;5065038;28;20092;-59
2022/06/30 01:45:42;;;;;;;15.00;6.00;;;;;;;16.88;60.99;99902.13;5066555;28;20032;-59
2022/06/30 01:48:09;;;;;;;11.65;6.45;;;;;;;16.87;61.03;99899.53;5066888;28;20051;-59
2022/06/30 01:50:35;;;;;;;12.50;5.93;;;;;;;16.89;61.38;99895.13;5067587;28;20044;-60
2022/06/30 01:53:01;;;;;;;13.43;6.43;;;;;;;16.87;61.37;99891.69;5077666;28;20032;-59
2022/06/30 01:55:28;;;;;;;13.00;5.95;;;;;;;16.88;61.07;99890.81;5068403;28;20025;-60
2022/06/30 01:57:54;;;;;;;9.25;5.00;;;;;;;16.87;61.37;99889.94;5046912;28;20300;-59
2022/06/30 02:00:24;;;;;;;13.95;6.05;;;;;;;16.77;61.61;99859.00;5064848;28;20025;-59
2022/06/30 02:02:51;;;;;;;12.75;5.38;;;;;;;16.92;61.57;99881.91;5067261;28;20032;-59
2022/06/30 02:05:17;;;;;;;13.02;5.63;;;;;;;16.96;61.91;99886.09;5079442;28;20031;-59
2022/06/30 02:07:43;;;;;;;13.80;5.65;;;;;;;17.00;62.06;99882.44;5074273;28;20044;-59
2022/06/30 02:10:15;;;;;;;10.55;5.15;;;;;;;16.83;62.32;99859.59;5064578;28;20039;-59
2022/06/30 02:12:47;;;;;;;9.63;5.03;;;;;;;17.11;62.12;99887.16;5065351;28;20052;-59
2022/06/30 02:15:18;;;;;;;12.18;5.38;;;;;;;17.15;62.15;99887.88;5083629;28;20023;-59
2022/06/30 02:17:45;;;;;;;13.32;5.45;;;;;;;17.14;62.09;99884.41;5065410;28;20032;-60
2022/06/30 02:20:12;;;;;;;11.70;5.57;;;;;;;17.25;61.73;99907.47;5049378;28;20030;-60
2022/06/30 02:22:39;;;;;;;15.98;5.25;;;;;;;17.31;61.88;99899.34;5053552;28;20033;-59
2022/06/30 02:25:06;;;;;;;16.52;5.82;;;;;;;17.32;62.34;99884.50;5064259;28;20025;-60
2022/06/30 02:27:32;;;;;;;17.88;5.75;;;;;;;17.34;62.48;99891.34;5063957;28;20061;-59
2022/06/30 02:29:58;;;;;;;17.10;5.28;;;;;;;17.40;62.21;99885.84;5064508;28;20041;-59
2022/06/30 02:32:24;;;;;;;12.73;5.55;;;;;;;17.53;61.85;99880.00;5063904;28;20404;-60
2022/06/30 02:34:50;;;;;;;19.83;6.03;;;;;;;17.63;62.15;99888.28;5046199;28;20237;-59
2022/06/30 02:37:16;;;;;;;15.43;5.90;;;;;;;17.60;62.20;99884.91;5063887;28;20382;-60
2022/06/30 02:39:41;;;;;;;11.80;4.85;;;;;;;17.71;61.99;99886.97;5063756;28;20029;-60
2022/06/30 02:42:07;;;;;;;15.15;5.75;;;;;;;17.70;61.77;99897.53;5064147;28;20103;-60
2022/06/30 02:44:33;;;;;;;11.50;6.07;;;;;;;17.71;62.28;99886.16;5063667;28;20025;-60
2022/06/30 02:46:59;;;;;;;15.73;5.97;;;;;;;17.74;62.61;99894.72;5075578;28;20340;-60
2022/06/30 02:49:25;;;;;;;16.30;5.63;;;;;;;17.77;62.16;99897.19;5076505;28;20028;-60
2022/06/30 02:51:50;;;;;;;14.00;5.75;;;;;;;17.77;62.88;99896.31;5063801;28;20265;-60
2022/06/30 02:54:16;;;;;;;12.77;5.15;;;;;;;17.75;62.42;99888.53;5063490;28;20241;-60
2022/06/30 02:56:42;;;;;;;12.27;5.45;;;;;;;17.84;62.97;99894.25;5063584;28;20037;-61
2022/06/30 02:59:08;;;;;;;10.05;4.80;;;;;;;17.88;62.84;99896.66;5076266;28;20139;-60
2022/06/30 03:01:34;;;;;;;11.02;5.05;;;;;;;17.90;62.13;99894.84;5074916;28;20025;-60
2022/06/30 03:04:02;;;;;;;9.93;5.32;;;;;;;17.93;62.83;99891.25;5067033;28;20025;-60
2022/06/30 03:06:31;;;;;;;9.73;5.25;;;;;;;18.02;62.11;99889.94;5083532;28;20102;-60
2022/06/30 03:08:58;;;;;;;11.38;5.13;;;;;;;18.07;61.91;99894.03;5063172;28;20326;-60
2022/06/30 03:11:24;;;;;;;10.68;4.95;;;;;;;18.11;61.82;99890.34;5063374;28;20052;-60
2022/06/30 03:13:49;;;;;;;12.98;4.97;;;;;;;18.14;61.68;99884.06;5073629;28;20025;-60
2022/06/30 03:16:17;;;;;;;11.05;5.30;;;;;;;18.20;61.91;99881.16;5077452;28;20094;-61
2022/06/30 03:18:44;;;;;;;12.48;5.32;;;;;;;18.26;61.96;99882.63;5063202;28;20032;-61
2022/06/30 03:21:10;;;;;;;10.95;5.22;;;;;;;18.38;61.79;99889.03;5063283;28;20021;-60
2022/06/30 03:23:36;;;;;;;12.38;5.07;;;;;;;18.48;61.28;99877.13;5063215;28;20024;-60
2022/06/30 03:26:03;;;;;;;9.95;5.30;;;;;;;18.64;60.69;99887.72;5062743;28;20033;-61
2022/06/30 03:28:29;;;;;;;10.90;5.45;;;;;;;18.69;60.20;99887.47;5061865;28;20025;-61
2022/06/30 03:30:54;;;;;;;11.88;5.22;;;;;;;18.70;60.59;99884.75;5078345;28;20035;-61
2022/06/30 03:33:20;;;;;;;10.48;5.15;;;;;;;18.77;60.91;99886.13;5062851;28;20035;-60
2022/06/30 03:35:46;;;;;;;11.10;5.50;;;;;;;18.85;59.76;99882.25;5081104;28;20094;-61
2022/06/30 03:38:13;;;;;;;9.85;4.90;;;;;;;18.89;59.76;99881.22;5051270;28;20028;-60
2022/06/30 03:40:39;;;;;;;11.05;4.93;;;;;;;18.95;59.33;99880.88;5045125;28;20033;-60
2022/06/30 03:43:06;;;;;;;6.70;4.40;;;;;;;18.95;59.04;99876.50;5062817;28;20025;-60
2022/06/30 03:45:33;;;;;;;13.63;5.00;;;;;;;19.05;59.21;99884.69;5062345;28;20021;-60
2022/06/30 03:48:04;;;;;;;8.10;4.20;;;;;;;18.99;58.74;99871.91;5062668;28;20406;-60
2022/06/30 03:50:30;;;;;;;9.67;3.73;;;;;;;19.12;57.05;99888.69;5062810;28;20024;-60
2022/06/30 03:52:57;;;;;;;9.10;3.88;;;;;;;19.13;57.08;99877.25;5073715;28;20094;-60
2022/06/30 03:55:23;;;;;;;6.43;3.83;;;;;;;19.25;57.20;99893.28;5071956;28;20036;-61
2022/06/30 03:57:49;;;;;;;10.80;3.97;;;;;;;19.21;57.54;99889.13;5080599;28;20084;-61
2022/06/30 04:00:15;;;;;;;9.45;3.90;;;;;;;19.18;58.41;99886.66;5062537;28;20340;-62
2022/06/30 04:02:40;;;;;;;9.90;4.10;;;;;;;19.27;57.02;99891.44;5044551;28;20217;-61
2022/06/30 04:05:07;;;;;;;8.68;3.92;;;;;;;19.39;56.48;99893.38;5062330;28;20033;-61
2022/06/30 04:07:37;;;;;;;11.98;4.85;;;;;;;19.46;56.64;99891.28;5052230;28;20261;-61
2022/06/30 04:10:03;;;;;;;8.98;3.63;;;;;;;19.45;56.25;99874.66;5082470;28;20116;-60
2022/06/30 04:12:29;;;;;;;8.55;3.92;;;;;;;19.59;56.53;99883.56;5082607;28;20043;-60
2022/06/30 04:14:54;;;;;;;8.30;4.25;;;;;;;19.62;56.16;99886.00;5082509;28;20090;-61
2022/06/30 04:17:20;;;;;;;8.30;4.10;;;;;;;19.71;55.74;99884.63;5068398;28;20241;-61
2022/06/30 04:19:45;;;;;;;7.55;4.55;;;;;;;19.74;55.18;99885.31;5062121;28;20036;-60
2022/06/30 04:22:11;;;;;;;10.85;4.80;;;;;;;19.81;55.23;99883.25;5062235;28;20367;-60
2022/06/30 04:24:36;;;;;;;7.68;4.43;;;;;;;19.78;55.66;99881.59;5062464;28;20028;-60
2022/06/30 04:27:02;;;;;;;8.30;3.92;;;;;;;19.85;55.50;99886.53;5062228;28;20043;-60
2022/06/30 04:29:28;;;;;;;8.23;3.85;;;;;;;19.86;55.24;99875.09;5044080;28;20215;-59
2022/06/30 04:34:37;;;;;;;9.05;3.42;;;;;;;19.99;55.27;99876.94;5062233;28;20147;-60
2022/06/30 04:37:03;;;;;;;10.05;3.70;;;;;;;20.04;55.44;99868.78;5065615;28;20045;-60
2022/06/30 04:39:29;;;;;;;5.55;3.42;;;;;;;20.10;55.31;99871.03;5046890;28;20031;-60
2022/06/30 04:41:54;;;;;;;7.15;3.63;;;;;;;20.20;55.13;99867.88;5066078;28;20218;-61
2022/06/30 04:44:20;;;;;;;5.20;3.05;;;;;;;20.32;54.12;99875.03;5054334;28;20072;-60
2022/06/30 04:46:46;;;;;;;8.77;3.30;;;;;;;20.38;54.65;99869.44;5060209;28;20025;-61
2022/06/30 04:49:11;;;;;;;5.60;3.03;;;;;;;20.41;54.56;99871.88;5065877;28;20035;-61
2022/06/30 04:51:37;;;;;;;6.78;2.58;;;;;;;20.50;53.77;99868.66;5065310;28;20066;-61
2022/06/30 04:54:02;;;;;;;5.57;2.67;;;;;;;20.65;53.19;99864.28;5065550;28;20028;-60
2022/06/30 04:56:30;;;;;;;5.20;2.40;;;;;;;20.79;51.23;99865.25;5080713;28;20025;-60
2022/06/30 04:58:56;;;;;;;5.82;2.55;;;;;;;20.88;51.26;99869.09;5085385;28;20028;-61
2022/06/30 05:01:22;;;;;;;4.28;2.42;;;;;;;20.93;50.07;99867.03;5080008;28;20095;-60
2022/06/30 05:03:47;;;;;;;4.53;1.88;;;;;;;21.01;45.66;99870.06;5065467;28;20051;-60
2022/06/30 05:06:13;;;;;;;7.90;2.00;;;;;;;21.05;47.21;99863.66;5065234;28;20029;-60
2022/06/30 05:08:39;;;;;;;3.50;2.15;;;;;;;21.19;47.13;99866.28;5065200;28;20368;-61
2022/06/30 05:11:05;;;;;;;2.33;1.48;;;;;;;21.12;45.54;99838.63;5065493;28;20031;-61
2022/06/30 05:13:31;;;;;;;1.55;1.27;;;;;;;21.44;45.56;99875.25;5072393;28;20246;-61
2022/06/30 05:15:56;;;;;;;1.65;1.50;;;;;;;21.52;44.29;99861.59;5065543;28;20028;-62
2022/06/30 05:18:24;;;;;;;2.72;1.50;;;;;;;21.65;43.42;99857.25;5065317;28;20086;-61
2022/06/30 05:20:49;;;;;;;4.78;1.55;;;;;;;21.79;44.20;99859.00;5065371;28;20337;-62
2022/06/30 05:23:15;;;;;;;5.45;4.75;;;;;;;21.84;43.98;99856.88;5078126;28;20063;-62
2022/06/30 05:28:25;;;;;;;5.72;1.60;;;;;;;22.07;42.02;99859.78;5062769;28;20029;-63
2022/06/30 05:30:55;;;;;;;4.90;2.00;;;;;;;22.23;43.10;99857.81;5064252;28;20035;-62
2022/06/30 05:33:21;;;;;;;7.82;1.90;;;;;;;22.30;41.92;99858.25;5044852;28;20180;-62
2022/06/30 05:35:51;;;;;;;5.47;1.83;;;;;;;22.37;41.63;99854.25;5064763;28;20051;-62
2022/06/30 05:38:18;;;;;;;3.60;1.90;;;;;;;22.45;40.13;99861.69;5064090;28;20093;-63
2022/06/30 05:40:47;;;;;;;3.22;1.60;;;;;;;22.49;40.60;99863.16;5064542;28;20078;-62
2022/06/30 05:43:16;;;;;;;3.20;1.60;;;;;;;22.41;39.52;99861.03;5066136;28;20161;-63
2022/06/30 05:45:42;;;;;;;4.10;1.42;;;;;;;22.50;38.90;99864.00;5062276;28;20021;-63
2022/06/30 05:48:08;;;;;;;2.80;1.20;;;;;;;22.47;38.07;99862.41;5063134;28;20036;-63
2022/06/30 05:50:34;;;;;;;2.58;1.60;;;;;;;22.48;40.46;99877.31;5064513;28;20107;-62
2022/06/30 05:53:00;;;;;;;8.18;2.17;;;;;;;22.48;38.56;99866.75;5064906;28;20092;-62
2022/06/30 05:55:25;;;;;;;5.53;1.23;;;;;;;22.49;38.00;99868.44;5065770;28;20249;-62
2022/06/30 05:58:01;;;;;;;2.17;1.55;;;;;;;22.56;37.58;99874.13;5046513;28;20055;-61
2022/06/30 06:00:30;;;;;;;4.97;1.40;;;;;;;22.48;37.51;99850.91;5064326;28;20101;-61
2022/06/30 06:02:55;;;;;;;3.25;1.42;;;;;;;22.68;36.65;99868.00;5064529;28;20033;-62
2022/06/30 06:05:22;;;;;;;1.75;1.40;;;;;;;22.70;36.89;99860.84;5077716;28;20182;-62
2022/06/30 06:07:48;;;;;;;2.97;1.50;;;;;;;22.81;36.98;99868.00;5075672;28;20040;-62
2022/06/30 06:10:14;;;;;;;3.88;1.85;;;;;;;22.90;36.91;99867.38;5064429;28;20036;-63
2022/06/30 06:12:42;;;;;;;5.88;1.75;;;;;;;22.95;37.83;99860.94;5064618;28;20025;-62
2022/06/30 06:15:09;;;;;;;3.88;2.00;;;;;;;22.95;37.14;99860.94;5064064;28;20021;-62
2022/06/30 06:17:42;;;;;;;4.80;1.63;;;;;;;23.07;36.65;99863.53;5064358;28;20317;-62
2022/06/30 06:20:09;;;;;;;3.10;2.28;;;;;;;22.87;38.16;99866.72;5064213;28;20033;-62
2022/06/30 06:22:34;;;;;;;7.72;1.67;;;;;;;22.89;36.92;99863.03;5064285;28;20021;-62
2022/06/30 06:25:00;;;;;;;3.05;1.67;;;;;;;22.98;36.95;99876.56;5064278;28;20054;-62
2022/06/30 06:27:25;;;;;;;4.10;1.70;;;;;;;23.07;37.10;99871.47;5064593;28;20025;-62
2022/06/30 06:29:51;;;;;;;1.73;1.42;;;;;;;23.13;37.58;99869.34;5081484;28;20032;-62
2022/06/30 06:32:16;;;;;;;4.38;1.40;;;;;;;23.11;37.55;99874.75;5084023;28;20031;-62
2022/06/30 06:34:42;;;;;;;3.65;1.70;;;;;;;23.17;38.14;99869.03;5075920;28;20029;-62
2022/06/30 06:37:07;;;;;;;3.13;1.83;;;;;;;23.06;37.88;99861.84;5063852;28;20047;-61
2022/06/30 06:39:33;;;;;;;5.47;1.50;;;;;;;23.11;37.74;99858.91;5063918;28;20064;-61
2022/06/30 06:41:58;;;;;;;4.45;1.70;;;;;;;23.07;38.46;99852.13;5063901;28;20020;-61
2022/06/30 06:44:25;;;;;;;3.88;1.50;;;;;;;23.11;37.75;99861.53;5063229;28;20059;-62
2022/06/30 06:46:50;;;;;;;2.95;1.70;;;;;;;23.13;38.51;99857.00;5057222;28;20082;-62
2022/06/30 06:49:16;;;;;;;2.03;1.20;;;;;;;23.12;38.51;99860.59;5063345;28;20021;-61
2022/06/30 06:51:41;;;;;;;3.47;1.48;;;;;;;23.04;38.75;99852.34;5063734;28;20020;-62
2022/06/30 06:54:07;;;;;;;3.35;1.73;;;;;;;23.12;37.95;99847.38;5063550;28;20017;-61
2022/06/30 06:56:32;;;;;;;2.42;1.38;;;;;;;23.20;37.91;99847.69;5063568;28;20021;-60
2022/06/30 06:58:59;;;;;;;4.20;1.58;;;;;;;23.32;38.48;99853.06;5063646;28;20063;-62
2022/06/30 07:01:25;;;;;;;2.70;1.63;;;;;;;23.33;37.38;99852.06;5068960;28;20040;-60
2022/06/30 07:03:51;;;;;;;2.30;2.10;;;;;;;23.41;38.19;99833.88;5082592;28;20217;-60
2022/06/30 07:06:16;;;;;;;5.00;1.38;;;;;;;23.40;36.47;99834.81;5081910;28;20028;-61
2022/06/30 07:08:42;;;;;;;2.55;1.30;;;;;;;23.65;37.05;99841.81;5067166;28;20048;-61
2022/06/30 07:11:08;;;;;;;4.28;1.60;;;;;;;23.59;36.97;99845.75;5046702;28;20024;-61
2022/06/30 07:13:35;;;;;;;3.17;1.40;;;;;;;23.61;37.05;99846.50;5044842;28;20096;-62
2022/06/30 07:16:01;;;;;;;3.25;1.35;;;;;;;23.70;38.26;99846.75;5063138;28;20377;-61
2022/06/30 07:18:27;;;;;;;2.00;1.58;;;;;;;23.85;37.64;99834.19;5060197;28;20078;-62
2022/06/30 07:20:53;;;;;;;2.90;1.27;;;;;;;23.76;35.85;99846.31;5062755;28;20353;-61
2022/06/30 07:23:19;;;;;;;3.00;1.40;;;;;;;23.77;36.50;99830.31;5062822;28;20037;-62
2022/06/30 07:25:44;;;;;;;2.50;1.40;;;;;;;23.84;36.66;99840.44;5062650;28;20021;-62
2022/06/30 07:28:10;;;;;;;9.70;1.92;;;;;;;23.83;36.70;99836.09;5062419;28;20066;-62
2022/06/30 07:30:35;;;;;;;2.40;1.52;;;;;;;23.87;36.39;99843.75;5062773;28;20214;-63
2022/06/30 07:33:01;;;;;;;1.58;1.48;;;;;;;23.71;36.30;99840.50;5063082;28;20079;-63
2022/06/30 07:35:27;;;;;;;2.55;1.60;;;;;;;23.79;36.87;99830.22;5062469;28;20099;-63
2022/06/30 07:37:52;;;;;;;3.85;1.90;;;;;;;23.89;37.69;99823.28;5067622;28;20380;-62
2022/06/30 07:40:18;;;;;;;3.47;1.40;;;;;;;23.83;35.05;99820.22;5066696;28;20020;-62
2022/06/30 07:42:44;;;;;;;3.42;1.70;;;;;;;23.91;35.88;99831.97;5082965;28;20054;-61
2022/06/30 07:45:10;;;;;;;5.30;1.80;;;;;;;23.72;36.79;99826.34;5061424;28;20040;-61
2022/06/30 07:47:39;;;;;;;8.82;2.15;;;;;;;23.68;36.33;99838.09;5057726;28;20029;-60
2022/06/30 07:50:06;;;;;;;3.22;1.52;;;;;;;24.01;36.56;99836.56;5061656;28;20025;-61
2022/06/30 07:52:33;;;;;;;3.80;1.38;;;;;;;23.96;35.97;99834.28;5062509;28;20027;-62
2022/06/30 07:55:00;;;;;;;1.92;1.30;;;;;;;24.04;35.79;99821.31;5062236;28;20084;-61
2022/06/30 07:57:27;;;;;;;3.25;1.48;;;;;;;23.96;34.89;99821.03;5062387;28;20037;-60
2022/06/30 07:59:53;;;;;;;1.50;1.40;;;;;;;24.13;35.43;99817.13;5062593;28;20021;-61
2022/06/30 08:02:18;;;;;;;3.33;1.60;;;;;;;24.11;36.06;99809.31;5062304;28;20062;-61
2022/06/30 08:04:44;;;;;;;4.90;1.67;;;;;;;24.19;35.84;99794.63;5062703;28;20044;-60
2022/06/30 08:07:10;;;;;;;2.17;1.33;;;;;;;24.29;35.45;99785.84;5044802;28;20040;-61
2022/06/30 08:09:36;;;;;;;6.10;1.70;;;;;;;24.20;34.48;99799.81;5060651;28;20032;-61
2022/06/30 08:12:03;;;;;;;1.88;1.42;;;;;;;24.32;34.38;99805.13;5065018;28;20260;-61
2022/06/30 08:14:29;;;;;;;3.42;1.38;;;;;;;24.46;34.39;99799.59;5066062;28;20056;-61
2022/06/30 08:16:54;;;;;;;2.42;1.50;;;;;;;24.45;34.15;99795.25;5065976;28;20020;-62
2022/06/30 08:19:20;;;;;;;2.50;1.42;;;;;;;24.51;33.93;99788.63;5066101;28;20082;-62
2022/06/30 08:21:47;;;;;;;3.63;1.20;;;;;;;24.60;34.77;99791.44;5066300;28;20167;-62
2022/06/30 08:24:13;;;;;;;1.83;1.30;;;;;;;24.59;34.12;99794.19;5066439;28;20225;-61
2022/06/30 08:26:38;;;;;;;6.55;1.77;;;;;;;24.60;32.71;99794.09;5066259;28;20029;-61
2022/06/30 08:29:04;;;;;;;3.90;1.40;;;;;;;24.70;33.45;99794.22;5066360;28;20195;-60
2022/06/30 08:31:29;;;;;;;1.70;1.40;;;;;;;24.75;32.83;99799.16;5065798;28;20024;-61
2022/06/30 08:33:56;;;;;;;5.45;1.58;;;;;;;24.81;32.17;99809.25;5067305;28;20233;-61
2022/06/30 08:36:22;;;;;;;5.70;1.55;;;;;;;24.83;33.51;99786.13;5071639;28;20064;-61
2022/06/30 08:38:48;;;;;;;6.13;2.15;;;;;;;24.92;32.69;99777.44;5065927;28;20025;-62
2022/06/30 08:44:00;;;;;;;5.50;1.70;;;;;;;24.97;32.50;99780.56;5076968;28;20063;-61
2022/06/30 08:46:27;;;;;;;1.95;1.73;;;;;;;25.14;32.95;99775.72;5064802;28;20067;-61
2022/06/30 08:48:54;;;;;;;2.45;1.70;;;;;;;25.12;33.31;99767.03;5065863;28;20036;-63
2022/06/30 08:51:20;;;;;;;3.03;1.70;;;;;;;24.80;29.94;99781.09;5065953;28;20053;-63
2022/06/30 08:54:01;;;;;;;5.72;1.70;;;;;;;24.81;30.37;99788.03;5065872;28;20025;-62
2022/06/30 08:56:34;;;;;;;3.90;1.92;;;;;;;24.72;29.44;99780.84;5073669;28;20063;-64
2022/06/30 08:59:02;;;;;;;2.65;2.10;;;;;;;24.84;30.22;99779.88;5069317;28;20052;-61
2022/06/30 09:01:28;;;;;;;4.15;1.88;;;;;;;24.97;30.24;99782.38;5077293;28;20029;-62
2022/06/30 09:03:57;;;;;;;3.90;1.83;;;;;;;25.15;31.28;99780.03;5067447;28;20175;-60
2022/06/30 09:06:23;;;;;;;3.20;1.55;;;;;;;25.19;31.21;99776.19;5065810;28;20029;-62
2022/06/30 09:08:49;;;;;;;3.95;1.95;;;;;;;25.32;31.52;99771.63;5065422;28;20071;-62
2022/06/30 09:11:15;;;;;;;4.32;1.65;;;;;;;25.23;29.95;99766.19;5064217;28;20032;-62
2022/06/30 09:13:48;;;;;;;5.22;2.10;;;;;;;25.18;30.15;99774.50;5065327;28;20088;-62
2022/06/30 09:16:14;;;;;;;4.88;2.30;;;;;;;25.22;30.78;99781.22;5065621;28;20048;-62
2022/06/30 09:18:40;;;;;;;6.68;2.08;;;;;;;25.28;31.58;99770.16;5049434;28;20110;-64
2022/06/30 09:21:26;;;;;;;4.45;2.05;;;;;;;25.01;30.23;99782.97;5061564;28;20029;-63
2022/06/30 09:23:51;;;;;;;4.03;1.58;;;;;;;25.12;31.07;99769.69;5062402;28;20028;-65
2022/06/30 09:26:22;;;;;;;2.88;1.90;;;;;;;25.23;31.55;99774.97;5063857;28;20044;-64
2022/06/30 09:28:51;;;;;;;2.65;1.58;;;;;;;25.32;30.26;99771.63;5063740;28;20420;-64
2022/06/30 09:31:31;;;;;;;2.20;1.70;;;;;;;25.29;30.12;99771.81;5063953;28;20036;-63
2022/06/30 09:34:09;;;;;;;17.20;2.03;;;;;;;25.37;30.30;99767.72;5065178;28;20037;-64
2022/06/30 09:36:35;;;;;;;5.18;1.85;;;;;;;25.35;30.99;99761.72;5065037;28;20032;-64
2022/06/30 09:39:02;;;;;;;3.63;1.45;;;;;;;25.36;30.87;99771.34;5064621;28;20313;-65
2022/06/30 09:41:30;;;;;;;5.65;1.70;;;;;;;25.50;31.22;99750.66;5064538;28;20020;-63
2022/06/30 09:43:56;;;;;;;2.97;1.52;;;;;;;25.30;30.93;99746.97;5073092;28;20029;-62
2022/06/30 09:46:21;;;;;;;2.97;2.05;;;;;;;25.41;30.38;99748.78;5076721;28;20363;-62
2022/06/30 09:48:47;;;;;;;5.18;2.08;;;;;;;25.30;31.56;99749.63;5084742;28;20020;-63
2022/06/30 09:51:13;;;;;;;20.08;3.42;;;;;;;25.42;31.48;99757.59;5047922;28;20340;-62
2022/06/30 09:53:39;;;;;;;4.38;1.60;;;;;;;25.56;31.33;99740.53;5064686;28;20021;-62
2022/06/30 09:56:14;;;;;;;4.55;1.60;;;;;;;25.43;31.16;99736.22;5064937;28;20020;-63
2022/06/30 09:58:42;;;;;;;4.18;1.90;;;;;;;25.40;31.08;99752.41;5071065;28;20028;-64
2022/06/30 10:01:10;;;;;;;1.60;1.50;;;;;;;25.16;30.51;99697.75;5083262;28;20110;-62
2022/06/30 10:03:59;;;;;;;3.65;1.88;;;;;;;25.26;31.18;99704.94;5064722;28;20096;-62
2022/06/30 10:06:25;;;;;;;3.92;1.77;;;;;;;25.60;31.74;99736.66;5064259;28;20035;-63
2022/06/30 10:08:53;;;;;;;2.90;1.77;;;;;;;25.48;31.62;99706.66;5064681;28;20230;-63
2022/06/30 10:11:19;;;;;;;7.18;2.28;;;;;;;25.69;31.50;99729.72;5064913;28;20114;-63
2022/06/30 10:13:55;;;;;;;6.53;2.22;;;;;;;25.79;31.99;99741.25;5065743;28;20314;-63
2022/06/30 10:16:22;;;;;;;5.20;1.80;;;;;;;25.63;30.10;99733.75;5064400;28;20024;-63
2022/06/30 10:18:49;;;;;;;3.47;1.90;;;;;;;25.45;30.57;99733.44;5063051;28;20372;-63
2022/06/30 10:21:16;;;;;;;6.88;1.95;;;;;;;25.60;30.60;99734.84;5064341;28;20037;-62
2022/06/30 10:23:43;;;;;;;2.70;1.40;;;;;;;25.73;31.03;99732.00;5079767;28;20029;-62
2022/06/30 10:27:12;;;;;;;6.13;2.05;;;;;;;25.54;29.94;99731.84;5064320;28;20099;-61
2022/06/30 10:28:54;;;;;;;4.72;1.60;;;;;;;25.39;29.87;99723.38;5058408;28;20096;-62
2022/06/30 10:31:45;;;;;;;4.70;1.90;;;;;;;25.55;30.50;99729.06;5064114;28;20039;-63
2022/06/30 10:34:35;;;;;;;5.70;1.80;;;;;;;25.76;32.13;99714.97;5063899;28;20321;-61
2022/06/30 10:37:15;;;;;;;3.10;1.77;;;;;;;25.77;31.58;99688.31;5064178;28;20134;-62
2022/06/30 10:39:46;;;;;;;4.72;1.73;;;;;;;25.97;31.89;99718.44;5063382;28;20036;-62
2022/06/30 10:42:40;;;;;;;4.70;1.65;;;;;;;25.88;30.50;99707.78;5063937;28;20041;-61
2022/06/30 10:45:26;;;;;;;2.65;1.92;;;;;;;25.80;30.44;99721.72;5063699;28;20051;-63
2022/06/30 10:48:02;;;;;;;3.47;1.67;;;;;;;25.83;31.61;99718.78;5063505;28;20025;-62
2022/06/30 10:50:39;;;;;;;3.72;1.67;;;;;;;25.82;30.79;99717.97;5063776;28;20025;-63
2022/06/30 10:53:37;;;;;;;2.78;1.73;;;;;;;25.69;30.52;99714.63;5063641;28;20248;-63
2022/06/30 10:56:04;;;;;;;3.88;1.85;;;;;;;25.62;31.05;99708.19;5051599;28;20052;-62
2022/06/30 10:58:30;;;;;;;2.55;1.55;;;;;;;25.51;31.06;99706.44;5063459;28;20028;-62
2022/06/30 11:00:55;;;;;;;3.65;2.20;;;;;;;25.63;30.46;99700.09;5063481;28;20070;-63
2022/06/30 11:03:29;;;;;;;2.85;1.98;;;;;;;25.59;31.56;99697.81;5062738;28;20024;-62
2022/06/30 11:05:56;;;;;;;4.05;1.80;;;;;;;25.70;32.14;99695.09;5060683;28;20326;-61
2022/06/30 11:08:47;;;;;;;2.75;1.90;;;;;;;25.73;31.35;99694.00;5063486;28;20056;-62
2022/06/30 11:11:24;;;;;;;3.90;1.83;;;;;;;25.62;31.76;99686.94;5063130;28;20071;-61
2022/06/30 11:14:11;;;;;;;6.05;1.92;;;;;;;25.59;32.33;99693.34;5070117;28;20324;-61
2022/06/30 11:16:39;;;;;;;6.75;1.85;;;;;;;25.56;32.65;99685.66;5067949;28;20067;-61
2022/06/30 11:19:14;;;;;;;12.55;1.65;;;;;;;25.56;33.23;99672.41;5062731;28;20029;-65
2022/06/30 11:21:44;;;;;;;3.47;1.60;;;;;;;25.76;33.57;99672.53;5061376;28;20031;-63
2022/06/30 11:24:14;;;;;;;3.15;1.73;;;;;;;25.67;32.77;99680.28;5027848;28;20028;-64
2022/06/30 11:29:27;;;;;;;3.60;2.35;;;;;;;25.80;34.52;99692.53;5062583;28;20195;-61
2022/06/30 11:32:01;;;;;;;3.42;2.00;;;;;;;25.84;33.89;99688.63;5062811;28;20157;-62
2022/06/30 11:34:28;;;;;;;10.45;1.98;;;;;;;25.89;33.76;99682.94;5046091;28;20021;-62
2022/06/30 11:36:54;;;;;;;4.82;1.95;;;;;;;25.79;33.01;99677.56;5062986;28;20033;-60
2022/06/30 11:39:21;;;;;;;4.20;1.83;;;;;;;25.60;31.60;99671.16;5061835;28;20282;-61
2022/06/30 11:42:01;;;;;;;1.92;1.60;;;;;;;25.62;31.38;99663.06;5061941;28;20029;-61
2022/06/30 11:44:38;;;;;;;7.35;1.95;;;;;;;25.65;33.40;99668.97;5044189;28;20087;-61
2022/06/30 11:47:17;;;;;;;4.03;1.80;;;;;;;25.52;34.45;99633.84;5061560;28;20091;-63